createdAt,value
2022-12-25T00:02:20.349Z,100706.31
2022-12-25T00:04:48.610Z,100702.81
2022-12-25T00:07:17.612Z,100706.31
2022-12-25T00:09:45.528Z,100707.16
2022-12-25T00:12:13.716Z,100709.75
2022-12-25T00:14:41.680Z,100709.03
2022-12-25T00:17:09.652Z,100707.44
2022-12-25T00:19:39.220Z,100703.53
2022-12-25T00:22:07.168Z,100700.44
2022-12-25T00:24:35.252Z,100699.78
2022-12-25T00:27:03.611Z,100686.72
2022-12-25T00:29:31.728Z,100684.06
2022-12-25T00:31:59.973Z,100680.56
2022-12-25T00:34:28.377Z,100675.38
2022-12-25T00:36:57.796Z,100683.56
2022-12-25T00:39:25.897Z,100689.94
2022-12-25T00:42:12.154Z,100690.97
2022-12-25T00:44:43.035Z,100693.78
2022-12-25T00:47:13.808Z,100694.81
2022-12-25T00:49:42.012Z,100695.91
2022-12-25T00:52:11.838Z,100704.75
2022-12-25T00:54:40.434Z,100709.34
2022-12-25T00:57:08.475Z,100701.59
2022-12-25T00:59:36.749Z,100704.53
2022-12-25T01:02:18.995Z,100705.50
2022-12-25T01:04:47.052Z,100704.66
2022-12-25T01:07:17.896Z,100700.31
2022-12-25T01:10:04.149Z,100710.94
2022-12-25T01:12:33.416Z,100723.34
2022-12-25T01:15:01.776Z,100718.94
2022-12-25T01:17:30.007Z,100731.28
2022-12-25T01:19:58.349Z,100738.59
2022-12-25T01:22:27.740Z,100747.44
2022-12-25T01:24:55.726Z,100754.66
2022-12-25T01:27:25.372Z,100755.50
2022-12-25T01:29:53.400Z,100759.06
2022-12-25T01:32:21.478Z,100759.00
2022-12-25T01:34:55.653Z,100752.00
2022-12-25T01:37:24.855Z,100754.72
2022-12-25T01:39:54.920Z,100760.91
2022-12-25T01:42:24.453Z,100763.50
2022-12-25T01:45:35.896Z,100760.00
2022-12-25T01:48:07.544Z,100760.66
2022-12-25T01:50:39.464Z,100757.28
2022-12-25T01:53:08.556Z,100764.28
2022-12-25T01:55:39.414Z,100766.19
2022-12-25T01:58:07.679Z,100760.13
2022-12-25T02:00:35.870Z,100764.59
2022-12-25T02:03:04.941Z,100765.59
2022-12-25T02:05:35.269Z,100764.59
2022-12-25T02:08:08.648Z,100759.41
2022-12-25T02:10:39.593Z,100752.59
2022-12-25T02:13:08.876Z,100757.16
2022-12-25T02:15:48.208Z,100754.44
2022-12-25T02:18:24.083Z,100748.13
2022-12-25T02:21:16.755Z,100751.34
2022-12-25T02:24:18.614Z,100744.03
2022-12-25T02:27:05.697Z,100745.59
2022-12-25T02:29:43.418Z,100737.16
2022-12-25T02:32:18.051Z,100733.84
2022-12-25T02:34:52.366Z,100741.94
2022-12-25T02:37:27.207Z,100734.94
2022-12-25T02:40:00.610Z,100725.22
2022-12-25T02:42:55.372Z,100741.94
2022-12-25T02:45:49.075Z,100742.72
2022-12-25T02:48:37.640Z,100738.06
2022-12-25T02:51:28.540Z,100724.94
2022-12-25T02:54:18.009Z,100727.66
2022-12-25T02:57:06.165Z,100734.72
2022-12-25T02:59:55.947Z,100748.00
2022-12-25T03:02:45.407Z,100741.63
2022-12-25T03:05:35.042Z,100741.72
2022-12-25T03:08:08.586Z,100748.00
2022-12-25T03:10:57.779Z,100750.69
2022-12-25T03:13:32.701Z,100750.78
2022-12-25T03:16:18.823Z,100747.31
2022-12-25T03:18:48.829Z,100745.50
2022-12-25T03:21:34.711Z,100745.34
2022-12-25T03:24:20.820Z,100751.47
2022-12-25T03:26:58.304Z,100749.78
2022-12-25T03:29:47.387Z,100747.19
2022-12-25T03:32:26.908Z,100755.13
2022-12-25T03:35:24.268Z,100745.50
2022-12-25T03:38:15.791Z,100755.22
2022-12-25T03:41:15.579Z,100751.81
2022-12-25T03:44:10.402Z,100757.16
2022-12-25T03:47:02.367Z,100755.37
2022-12-25T03:49:54.930Z,100761.72
2022-12-25T03:52:41.974Z,100747.69
2022-12-25T03:55:30.592Z,100754.50
2022-12-25T04:01:02.676Z,100741.53
2022-12-25T04:03:48.741Z,100740.38
2022-12-25T04:06:34.299Z,100746.34
2022-12-25T04:09:21.419Z,100740.25
2022-12-25T04:12:07.176Z,100735.09
2022-12-25T04:15:07.857Z,100742.16
2022-12-25T04:17:53.580Z,100757.69
2022-12-25T04:20:39.419Z,100761.03
2022-12-25T04:23:21.736Z,100769.56
2022-12-25T04:26:09.185Z,100760.56
2022-12-25T04:28:54.663Z,100751.63
2022-12-25T04:31:40.888Z,100766.44
2022-12-25T04:34:26.807Z,100767.22
2022-12-25T04:36:58.088Z,100773.28
2022-12-25T04:39:26.095Z,100790.84
2022-12-25T04:41:55.676Z,100795.09
2022-12-25T04:44:23.775Z,100787.22
2022-12-25T04:46:52.084Z,100790.59
2022-12-25T04:49:20.338Z,100790.72
2022-12-25T04:51:48.315Z,100790.81
2022-12-25T04:54:16.273Z,100781.09
2022-12-25T04:56:46.032Z,100780.34
2022-12-25T04:59:15.562Z,100776.00
2022-12-25T05:01:43.639Z,100775.13
2022-12-25T05:04:12.061Z,100770.00
2022-12-25T05:06:40.268Z,100770.13
2022-12-25T05:09:08.220Z,100777.25
2022-12-25T05:11:36.498Z,100769.41
2022-12-25T05:14:04.673Z,100765.13
2022-12-25T05:16:34.049Z,100757.22
2022-12-25T05:19:03.201Z,100748.44
2022-12-25T05:21:31.166Z,100753.62
2022-12-25T05:23:59.267Z,100752.84
2022-12-25T05:26:28.354Z,100743.28
2022-12-25T05:28:56.576Z,100741.56
2022-12-25T05:31:24.559Z,100739.13
2022-12-25T05:33:54.113Z,100728.72
2022-12-25T05:36:22.094Z,100734.09
2022-12-25T05:38:50.307Z,100724.28
2022-12-25T05:41:18.597Z,100725.06
2022-12-25T05:43:46.751Z,100727.78
2022-12-25T05:46:15.586Z,100739.13
2022-12-25T05:48:44.092Z,100735.41
2022-12-25T05:51:15.450Z,100732.66
2022-12-25T05:53:44.750Z,100734.38
2022-12-25T05:56:13.370Z,100734.03
2022-12-25T05:58:41.866Z,100730.09
2022-12-25T06:01:16.086Z,100725.47
2022-12-25T06:03:44.809Z,100720.69
2022-12-25T06:06:14.680Z,100723.03
2022-12-25T06:08:43.180Z,100716.81
2022-12-25T06:11:13.814Z,100722.78
2022-12-25T06:13:41.844Z,100721.69
2022-12-25T06:16:12.129Z,100723.12
2022-12-25T06:18:43.017Z,100727.19
2022-12-25T06:21:13.454Z,100727.69
2022-12-25T06:23:43.435Z,100728.16
2022-12-25T06:26:14.917Z,100728.91
2022-12-25T06:28:43.537Z,100734.81
2022-12-25T06:33:42.951Z,100742.31
2022-12-25T06:36:13.304Z,100744.63
2022-12-25T06:38:43.303Z,100743.59
2022-12-25T06:41:13.243Z,100741.69
2022-12-25T06:43:41.224Z,100742.47
2022-12-25T06:46:11.832Z,100745.87
2022-12-25T06:48:47.903Z,100752.88
2022-12-25T06:51:16.398Z,100763.47
2022-12-25T06:53:46.115Z,100760.81
2022-12-25T06:56:16.600Z,100751.94
2022-12-25T06:58:45.112Z,100745.87
2022-12-25T07:01:19.958Z,100739.56
2022-12-25T07:03:50.879Z,100734.34
2022-12-25T07:06:19.087Z,100748.38
2022-12-25T07:08:48.691Z,100758.94
2022-12-25T07:11:17.269Z,100753.44
2022-12-25T07:13:45.337Z,100757.72
2022-12-25T07:16:13.821Z,100761.31
2022-12-25T07:18:42.695Z,100762.16
2022-12-25T07:21:12.242Z,100765.66
2022-12-25T07:23:40.494Z,100766.66
2022-12-25T07:26:11.649Z,100773.59
2022-12-25T07:28:39.647Z,100778.72
2022-12-25T07:31:10.754Z,100783.16
2022-12-25T07:33:39.281Z,100771.12
2022-12-25T07:36:10.251Z,100767.53
2022-12-25T07:38:41.833Z,100758.81
2022-12-25T07:41:13.926Z,100761.47
2022-12-25T07:43:42.627Z,100749.13
2022-12-25T07:46:11.074Z,100743.00
2022-12-25T07:48:39.405Z,100749.13
2022-12-25T07:51:10.964Z,100747.28
2022-12-25T07:53:40.036Z,100753.03
2022-12-25T07:56:11.494Z,100752.75
2022-12-25T07:58:41.523Z,100744.34
2022-12-25T08:01:13.279Z,100752.03
2022-12-25T08:03:41.770Z,100747.47
2022-12-25T08:06:12.395Z,100744.84
2022-12-25T08:08:42.154Z,100735.00
2022-12-25T08:11:10.976Z,100737.50
2022-12-25T08:13:40.620Z,100735.66
2022-12-25T08:16:11.044Z,100733.69
2022-12-25T08:18:40.315Z,100733.44
2022-12-25T08:21:10.835Z,100735.78
2022-12-25T08:23:40.644Z,100728.31
2022-12-25T08:26:12.291Z,100725.31
2022-12-25T08:28:42.083Z,100725.94
2022-12-25T08:31:12.627Z,100731.06
2022-12-25T08:33:40.657Z,100725.59
2022-12-25T08:36:10.913Z,100715.72
2022-12-25T08:38:39.860Z,100718.03
2022-12-25T08:41:08.327Z,100719.25
2022-12-25T08:43:36.470Z,100717.81
2022-12-25T08:46:06.831Z,100717.00
2022-12-25T08:48:35.677Z,100713.59
2022-12-25T08:51:04.590Z,100711.91
2022-12-25T08:53:32.980Z,100719.34
2022-12-25T08:56:03.830Z,100713.53
2022-12-25T08:58:31.918Z,100706.84
2022-12-25T09:01:00.884Z,100687.03
2022-12-25T09:03:32.167Z,100679.84
2022-12-25T09:06:04.227Z,100668.13
2022-12-25T09:08:32.594Z,100655.50
2022-12-25T09:11:03.401Z,100657.91
2022-12-25T09:13:32.438Z,100677.06
2022-12-25T09:16:00.981Z,100661.88
2022-12-25T09:18:30.733Z,100663.91
2022-12-25T09:21:00.663Z,100668.38
2022-12-25T09:23:29.888Z,100671.03
2022-12-25T09:25:59.580Z,100669.91
2022-12-25T09:28:27.746Z,100668.69
2022-12-25T09:30:56.467Z,100667.09
2022-12-25T09:33:25.275Z,100660.59
2022-12-25T09:35:59.187Z,100659.94
2022-12-25T09:38:28.382Z,100659.28
2022-12-25T09:41:01.190Z,100660.44
2022-12-25T09:43:33.116Z,100667.75
2022-12-25T09:46:04.186Z,100672.59
2022-12-25T09:48:35.120Z,100674.13
2022-12-25T09:51:11.796Z,100658.06
2022-12-25T09:53:44.663Z,100664.41
2022-12-25T09:56:17.803Z,100654.88
2022-12-25T09:58:46.705Z,100661.53
2022-12-25T10:01:22.596Z,100657.37
2022-12-25T10:04:07.027Z,100664.28
2022-12-25T10:06:45.749Z,100668.72
2022-12-25T10:09:31.540Z,100660.56
2022-12-25T10:12:23.893Z,100654.34
2022-12-25T10:15:14.909Z,100657.41
2022-12-25T10:18:01.188Z,100662.69
2022-12-25T10:20:41.707Z,100648.34
2022-12-25T10:23:16.930Z,100643.69
2022-12-25T10:25:46.107Z,100633.16
2022-12-25T10:28:18.121Z,100621.75
2022-12-25T10:30:47.193Z,100629.22
2022-12-25T10:33:17.435Z,100625.34
2022-12-25T10:35:46.388Z,100628.13
2022-12-25T10:38:18.487Z,100634.13
2022-12-25T10:40:58.846Z,100619.09
2022-12-25T10:43:34.006Z,100613.66
2022-12-25T10:46:02.200Z,100616.22
2022-12-25T10:48:31.618Z,100608.66
2022-12-25T10:50:59.615Z,100607.47
2022-12-25T10:53:38.006Z,100600.94
2022-12-25T10:56:07.519Z,100599.06
2022-12-25T10:58:35.589Z,100590.59
2022-12-25T11:01:07.259Z,100580.91
2022-12-25T11:06:08.860Z,100579.09
2022-12-25T11:08:39.905Z,100574.50
2022-12-25T11:11:08.128Z,100557.53
2022-12-25T11:13:40.725Z,100548.75
2022-12-25T11:16:14.173Z,100549.19
2022-12-25T11:18:47.335Z,100546.28
2022-12-25T11:21:18.486Z,100531.06
2022-12-25T11:23:50.531Z,100519.22
2022-12-25T11:26:19.652Z,100516.66
2022-12-25T11:28:51.318Z,100508.75
2022-12-25T11:31:22.498Z,100492.75
2022-12-25T11:33:56.173Z,100486.56
2022-12-25T11:36:30.812Z,100484.44
2022-12-25T11:39:09.111Z,100497.41
2022-12-25T11:41:41.512Z,100508.63
2022-12-25T11:44:26.572Z,100499.31
2022-12-25T11:46:57.189Z,100504.91
2022-12-25T11:49:25.531Z,100500.19
2022-12-25T11:51:56.503Z,100500.72
2022-12-25T11:54:31.091Z,100519.66
2022-12-25T11:57:03.584Z,100518.56
2022-12-25T11:59:35.945Z,100508.00
2022-12-25T12:02:22.890Z,100506.19
2022-12-25T12:05:03.252Z,100500.84
2022-12-25T12:07:35.420Z,100483.88
2022-12-25T12:10:13.900Z,100476.72
2022-12-25T12:12:56.411Z,100471.00
2022-12-25T12:15:29.903Z,100462.28
2022-12-25T12:18:09.250Z,100457.31
2022-12-25T12:20:38.204Z,100479.22
2022-12-25T12:23:16.394Z,100483.31
2022-12-25T12:25:46.452Z,100481.37
2022-12-25T12:28:22.356Z,100472.91
2022-12-25T12:31:03.286Z,100482.22
2022-12-25T12:33:34.454Z,100465.84
2022-12-25T12:36:05.064Z,100461.09
2022-12-25T12:38:35.248Z,100453.44
2022-12-25T12:41:08.426Z,100457.56
2022-12-25T12:43:40.910Z,100464.94
2022-12-25T12:46:17.951Z,100453.09
2022-12-25T12:48:49.114Z,100447.75
2022-12-25T12:51:30.218Z,100443.72
2022-12-25T12:54:20.580Z,100450.53
2022-12-25T12:57:01.835Z,100447.03
2022-12-25T12:59:38.910Z,100454.66
2022-12-25T13:02:28.258Z,100452.56
2022-12-25T13:05:03.621Z,100442.38
2022-12-25T13:07:44.366Z,100440.63
2022-12-25T13:10:23.890Z,100444.37
2022-12-25T13:13:00.519Z,100446.56
2022-12-25T13:15:31.044Z,100440.00
2022-12-25T13:18:03.908Z,100431.75
2022-12-25T13:20:41.210Z,100431.03
2022-12-25T13:23:25.343Z,100421.44
2022-12-25T13:25:55.203Z,100422.28
2022-12-25T13:28:32.546Z,100430.28
2022-12-25T13:31:12.297Z,100420.59
2022-12-25T13:33:41.978Z,100425.69
2022-12-25T13:36:12.406Z,100427.84
2022-12-25T13:38:45.728Z,100427.19
2022-12-25T13:41:37.240Z,100431.59
2022-12-25T13:44:17.498Z,100405.75
2022-12-25T13:46:45.577Z,100417.38
2022-12-25T13:49:17.658Z,100419.09
2022-12-25T13:51:46.787Z,100411.62
2022-12-25T13:54:17.112Z,100411.62
2022-12-25T13:56:51.709Z,100422.28
2022-12-25T13:59:23.203Z,100429.94
2022-12-25T14:01:53.980Z,100422.56
2022-12-25T14:04:24.881Z,100422.56
2022-12-25T14:06:53.558Z,100426.94
2022-12-25T14:09:21.916Z,100416.25
2022-12-25T14:11:53.305Z,100413.91
2022-12-25T14:14:28.297Z,100411.38
2022-12-25T14:17:00.313Z,100409.44
2022-12-25T14:19:30.196Z,100411.38
2022-12-25T14:22:02.825Z,100398.28
2022-12-25T14:24:32.415Z,100397.75
2022-12-25T14:27:02.948Z,100393.72
2022-12-25T14:29:38.314Z,100396.28
2022-12-25T14:32:08.808Z,100391.62
2022-12-25T14:34:36.957Z,100381.31
2022-12-25T14:37:05.677Z,100370.62
2022-12-25T14:39:36.427Z,100367.13
2022-12-25T14:42:14.594Z,100355.00
2022-12-25T14:44:44.361Z,100362.03
2022-12-25T14:47:18.742Z,100355.25
2022-12-25T14:49:47.698Z,100352.69
2022-12-25T14:52:22.277Z,100347.56
2022-12-25T14:54:54.136Z,100350.13
2022-12-25T14:57:35.588Z,100352.06
2022-12-25T15:00:09.823Z,100344.06
2022-12-25T15:02:46.527Z,100349.50
2022-12-25T15:05:34.289Z,100355.25
2022-12-25T15:08:20.488Z,100348.44
2022-12-25T15:11:04.878Z,100348.91
2022-12-25T15:13:34.265Z,100341.28
2022-12-25T15:16:07.687Z,100331.69
2022-12-25T15:18:40.559Z,100337.28
2022-12-25T15:21:16.389Z,100330.00
2022-12-25T15:23:44.564Z,100330.53
2022-12-25T15:26:15.147Z,100318.63
2022-12-25T15:28:43.305Z,100323.09
2022-12-25T15:31:22.230Z,100327.34
2022-12-25T15:33:50.945Z,100323.09
2022-12-25T15:36:19.024Z,100322.13
2022-12-25T15:38:47.179Z,100323.09
2022-12-25T15:41:32.157Z,100294.81
2022-12-25T15:44:00.404Z,100301.03
2022-12-25T15:46:30.103Z,100300.91
2022-12-25T15:48:58.065Z,100300.06
2022-12-25T15:51:26.063Z,100295.34
2022-12-25T15:53:54.252Z,100275.69
2022-12-25T15:56:23.203Z,100272.06
2022-12-25T15:58:51.332Z,100267.94
2022-12-25T16:01:21.484Z,100267.72
2022-12-25T16:03:51.467Z,100256.56
2022-12-25T16:06:19.871Z,100249.59
2022-12-25T16:08:47.936Z,100252.25
2022-12-25T16:11:16.323Z,100254.44
2022-12-25T16:13:44.616Z,100252.34
2022-12-25T16:16:12.700Z,100243.97
2022-12-25T16:18:47.142Z,100241.19
2022-12-25T16:21:20.336Z,100242.16
2022-12-25T16:23:49.033Z,100237.81
2022-12-25T16:26:17.721Z,100245.47
2022-12-25T16:28:45.782Z,100230.78
2022-12-25T16:31:14.168Z,100218.19
2022-12-25T16:33:42.310Z,100212.12
2022-12-25T16:36:10.522Z,100213.94
2022-12-25T16:38:40.265Z,100203.88
2022-12-25T16:41:09.459Z,100215.03
2022-12-25T16:43:37.407Z,100210.56
2022-12-25T16:46:17.344Z,100205.34
2022-12-25T16:48:45.999Z,100201.00
2022-12-25T16:51:20.191Z,100191.50
2022-12-25T16:53:58.372Z,100183.06
2022-12-25T16:56:28.525Z,100181.22
2022-12-25T16:58:58.872Z,100171.69
2022-12-25T17:01:32.854Z,100184.25
2022-12-25T17:04:02.229Z,100181.09
2022-12-25T17:06:30.994Z,100179.16
2022-12-25T17:09:06.580Z,100182.44
2022-12-25T17:11:34.833Z,100180.13
2022-12-25T17:14:08.661Z,100185.00
2022-12-25T17:16:39.022Z,100175.56
2022-12-25T17:19:19.157Z,100171.91
2022-12-25T17:21:48.764Z,100172.66
2022-12-25T17:24:18.974Z,100163.59
2022-12-25T17:26:50.126Z,100164.31
2022-12-25T17:29:22.051Z,100163.34
2022-12-25T17:31:51.349Z,100160.53
2022-12-25T17:34:20.014Z,100153.53
2022-12-25T17:36:48.314Z,100145.53
2022-12-25T17:39:17.880Z,100139.00
2022-12-25T17:41:45.910Z,100133.03
2022-12-25T17:44:14.010Z,100140.06
2022-12-25T17:46:42.581Z,100150.84
2022-12-25T17:49:16.116Z,100134.41
2022-12-25T17:51:44.687Z,100123.84
2022-12-25T17:54:12.916Z,100125.91
2022-12-25T17:56:42.433Z,100119.13
2022-12-25T17:59:18.256Z,100118.00
2022-12-25T18:01:48.190Z,100118.37
2022-12-25T18:04:16.919Z,100118.59
2022-12-25T18:06:45.021Z,100126.72
2022-12-25T18:09:13.946Z,100126.59
2022-12-25T18:11:44.502Z,100122.97
2022-12-25T18:14:14.881Z,100132.16
2022-12-25T18:16:45.399Z,100116.66
2022-12-25T18:19:15.072Z,100114.84
2022-12-25T18:21:43.417Z,100109.88
2022-12-25T18:24:12.032Z,100108.19
2022-12-25T18:26:40.284Z,100115.09
2022-12-25T18:29:10.008Z,100116.06
2022-12-25T18:31:38.328Z,100117.16
2022-12-25T18:34:06.493Z,100118.59
2022-12-25T18:36:35.167Z,100110.47
2022-12-25T18:39:03.255Z,100107.72
2022-12-25T18:41:31.426Z,100106.62
2022-12-25T18:44:00.801Z,100096.81
2022-12-25T18:46:30.148Z,100087.25
2022-12-25T18:48:58.605Z,100102.75
2022-12-25T18:51:33.156Z,100104.09
2022-12-25T18:54:04.972Z,100096.00
2022-12-25T18:56:33.404Z,100094.87
2022-12-25T18:59:01.635Z,100091.50
2022-12-25T19:01:31.395Z,100097.56
2022-12-25T19:04:05.229Z,100096.00
2022-12-25T19:06:34.193Z,100091.50
2022-12-25T19:09:08.686Z,100083.50
2022-12-25T19:11:42.055Z,100078.91
2022-12-25T19:14:14.302Z,100077.09
2022-12-25T19:16:43.792Z,100069.47
2022-12-25T19:19:11.979Z,100068.75
2022-12-25T19:21:40.337Z,100071.16
2022-12-25T19:24:08.651Z,100065.25
2022-12-25T19:26:37.698Z,100057.84
2022-12-25T19:29:06.059Z,100055.44
2022-12-25T19:31:34.104Z,100045.22
2022-12-25T19:34:03.684Z,100048.41
2022-12-25T19:36:32.473Z,100062.44
2022-12-25T19:39:00.467Z,100063.66
2022-12-25T19:41:28.530Z,100064.00
2022-12-25T19:43:56.913Z,100067.25
2022-12-25T19:46:28.244Z,100070.06
2022-12-25T19:48:57.287Z,100071.16
2022-12-25T19:51:29.372Z,100063.41
2022-12-25T19:53:57.862Z,100052.38
2022-12-25T19:56:27.389Z,100053.94
2022-12-25T19:58:56.082Z,100049.56
2022-12-25T20:01:26.861Z,100045.84
2022-12-25T20:03:55.587Z,100043.75
2022-12-25T20:06:26.885Z,100052.47
2022-12-25T20:08:56.774Z,100042.53
2022-12-25T20:11:27.118Z,100047.16
2022-12-25T20:13:56.970Z,100050.06
2022-12-25T20:16:26.106Z,100051.50
2022-12-25T20:18:54.668Z,100053.59
2022-12-25T20:21:23.781Z,100045.47
2022-12-25T20:23:54.967Z,100043.16
2022-12-25T20:26:25.781Z,100045.94
2022-12-25T20:28:54.384Z,100036.00
2022-12-25T20:31:27.552Z,100028.47
2022-12-25T20:33:56.791Z,100021.44
2022-12-25T20:36:29.583Z,100028.47
2022-12-25T20:39:02.517Z,100038.38
2022-12-25T20:41:30.693Z,100046.38
2022-12-25T20:43:59.004Z,100042.50
2022-12-25T20:46:28.908Z,100039.47
2022-12-25T20:48:56.998Z,100029.63
2022-12-25T20:51:26.897Z,100027.81
2022-12-25T20:53:56.003Z,100027.22
2022-12-25T20:56:27.497Z,100025.28
2022-12-25T20:58:57.337Z,100027.22
2022-12-25T21:01:27.150Z,100026.97
2022-12-25T21:03:57.286Z,100007.94
2022-12-25T21:06:25.618Z,100007.94
2022-12-25T21:08:54.001Z,100008.69
2022-12-25T21:11:22.581Z,100014.59
2022-12-25T21:13:52.186Z,100010.75
2022-12-25T21:16:22.691Z,100007.97
2022-12-25T21:18:53.289Z,99999.00
2022-12-25T21:21:22.311Z,100006.66
2022-12-25T21:23:50.840Z,100005.53
2022-12-25T21:26:20.785Z,100005.06
2022-12-25T21:28:49.138Z,100001.06
2022-12-25T21:31:19.428Z,100007.00
2022-12-25T21:33:53.215Z,100008.25
2022-12-25T21:36:26.709Z,100005.19
2022-12-25T21:38:57.467Z,100009.53
2022-12-25T21:41:26.815Z,100022.22
2022-12-25T21:43:55.396Z,100010.34
2022-12-25T21:46:26.031Z,100010.81
2022-12-25T21:48:55.450Z,100013.63
2022-12-25T21:51:43.163Z,100017.00
2022-12-25T21:54:12.988Z,100024.78
2022-12-25T21:56:45.290Z,100018.72
2022-12-25T21:59:16.087Z,100025.25
2022-12-25T22:01:46.396Z,100027.81
2022-12-25T22:04:16.360Z,100029.84
2022-12-25T22:07:15.151Z,100026.00
2022-12-25T22:09:44.776Z,100009.50
2022-12-25T22:12:34.402Z,100004.78
2022-12-25T22:15:06.387Z,99999.31
2022-12-25T22:17:55.541Z,100002.84
2022-12-25T22:20:26.501Z,100010.03
2022-12-25T22:22:55.279Z,100002.75
2022-12-25T22:25:25.523Z,100000.16
2022-12-25T22:27:54.126Z,99998.66
2022-12-25T22:30:24.609Z,99999.09
2022-12-25T22:32:54.648Z,99991.63
2022-12-25T22:35:22.872Z,99985.31
2022-12-25T22:37:50.925Z,99985.91
2022-12-25T22:40:21.007Z,99992.59
2022-12-25T22:42:49.173Z,99983.00
2022-12-25T22:45:17.416Z,99978.56
2022-12-25T22:47:45.732Z,99965.22
2022-12-25T22:50:16.084Z,99972.81
2022-12-25T22:52:45.980Z,99968.13
2022-12-25T22:55:18.092Z,99966.66
2022-12-25T22:57:46.341Z,99956.13
2022-12-25T23:00:15.258Z,99959.94
2022-12-25T23:02:44.193Z,99962.75
2022-12-25T23:05:13.096Z,99961.56
2022-12-25T23:07:42.953Z,99958.66
2022-12-25T23:10:12.320Z,99970.25
2022-12-25T23:12:57.971Z,99962.16
2022-12-25T23:15:27.709Z,99966.34
2022-12-25T23:18:13.842Z,99961.84
2022-12-25T23:20:59.806Z,99968.63
2022-12-25T23:23:46.548Z,99982.12
2022-12-25T23:29:02.532Z,99971.19
2022-12-25T23:31:33.991Z,99985.97
2022-12-25T23:34:03.197Z,99986.94
2022-12-25T23:36:31.799Z,99979.63
2022-12-25T23:39:08.578Z,99973.31
2022-12-25T23:41:37.746Z,99987.38
2022-12-25T23:44:05.821Z,99977.69
2022-12-25T23:46:34.082Z,99979.50
2022-12-25T23:49:02.539Z,99994.13
2022-12-25T23:51:30.715Z,100004.31
2022-12-25T23:53:58.772Z,100004.38
2022-12-25T23:56:28.350Z,99992.00
2022-12-25T23:58:56.419Z,99985.28
